createdAt,value
2023-01-21T00:01:02.265Z,6.43
2023-01-21T00:03:29.662Z,6.17
2023-01-21T00:05:58.679Z,6.83
2023-01-21T00:08:27.159Z,6.80
2023-01-21T00:10:54.503Z,6.70
2023-01-21T00:13:21.870Z,6.97
2023-01-21T00:15:49.102Z,5.50
2023-01-21T00:18:16.675Z,6.47
2023-01-21T00:20:45.749Z,7.60
2023-01-21T00:23:13.321Z,7.03
2023-01-21T00:25:40.824Z,8.00
2023-01-21T00:28:08.205Z,6.70
2023-01-21T00:30:37.083Z,6.83
2023-01-21T00:33:04.916Z,8.17
2023-01-21T00:35:32.170Z,6.97
2023-01-21T00:37:59.304Z,6.07
2023-01-21T00:40:26.827Z,6.40
2023-01-21T00:42:54.141Z,6.97
2023-01-21T00:45:21.274Z,6.83
2023-01-21T00:47:48.676Z,6.20
2023-01-21T00:50:16.336Z,7.20
2023-01-21T00:52:43.904Z,6.40
2023-01-21T00:55:11.041Z,5.00
2023-01-21T00:57:38.617Z,5.30
2023-01-21T01:00:11.332Z,5.40
2023-01-21T01:02:38.986Z,5.27
2023-01-21T01:05:08.567Z,5.50
2023-01-21T01:07:35.860Z,5.07
2023-01-21T01:10:03.298Z,5.60
2023-01-21T01:12:30.474Z,5.07
2023-01-21T01:15:00.792Z,4.50
2023-01-21T01:17:28.464Z,4.60
2023-01-21T01:19:56.030Z,4.77
2023-01-21T01:22:23.279Z,4.17
2023-01-21T01:24:50.528Z,5.10
2023-01-21T01:27:18.057Z,4.40
2023-01-21T01:29:45.466Z,5.10
2023-01-21T01:32:12.893Z,4.73
2023-01-21T01:34:40.300Z,4.60
2023-01-21T01:37:07.835Z,4.70
2023-01-21T01:39:35.924Z,4.70
2023-01-21T01:42:04.017Z,4.70
2023-01-21T01:44:53.005Z,4.43
2023-01-21T01:47:20.340Z,4.43
2023-01-21T01:49:47.999Z,4.73
2023-01-21T01:52:15.574Z,4.23
2023-01-21T01:54:45.212Z,5.17
2023-01-21T01:57:13.917Z,4.50
2023-01-21T01:59:41.240Z,4.20
2023-01-21T02:02:10.275Z,5.10
2023-01-21T02:04:46.369Z,4.47
2023-01-21T02:07:13.501Z,4.70
2023-01-21T02:09:40.745Z,4.73
2023-01-21T02:12:08.039Z,5.63
2023-01-21T02:14:36.753Z,5.27
2023-01-21T02:17:22.895Z,4.60
2023-01-21T02:20:27.401Z,5.47
2023-01-21T02:23:25.479Z,4.73
2023-01-21T02:26:18.178Z,5.33
2023-01-21T02:29:13.346Z,6.10
2023-01-21T02:31:52.795Z,5.03
2023-01-21T02:34:20.274Z,5.50
2023-01-21T02:37:02.777Z,4.40
2023-01-21T02:40:01.899Z,5.00
2023-01-21T02:42:30.717Z,6.37
2023-01-21T02:45:06.225Z,5.40
2023-01-21T02:47:40.599Z,5.67
2023-01-21T02:50:16.643Z,6.20
2023-01-21T02:52:44.201Z,5.70
2023-01-21T02:55:17.007Z,6.53
2023-01-21T02:57:47.797Z,6.40
2023-01-21T03:00:21.655Z,6.17
2023-01-21T03:03:19.710Z,5.73
2023-01-21T03:06:14.482Z,6.67
2023-01-21T03:08:51.456Z,5.43
2023-01-21T03:11:20.211Z,5.90
2023-01-21T03:14:33.536Z,5.60
2023-01-21T03:17:14.934Z,5.37
2023-01-21T03:19:54.833Z,6.43
2023-01-21T03:22:23.632Z,6.00
2023-01-21T03:24:52.063Z,5.43
2023-01-21T03:27:21.270Z,6.30
2023-01-21T03:29:48.720Z,5.37
2023-01-21T03:32:16.620Z,5.50
2023-01-21T03:34:45.869Z,5.67
2023-01-21T03:37:29.627Z,5.53
2023-01-21T03:40:15.770Z,6.00
2023-01-21T03:42:43.855Z,4.93
2023-01-21T03:45:11.697Z,5.83
2023-01-21T03:47:39.284Z,6.47
2023-01-21T03:50:10.411Z,5.83
2023-01-21T03:52:41.859Z,6.07
2023-01-21T03:55:09.657Z,5.20
2023-01-21T03:57:36.912Z,5.60
2023-01-21T04:00:05.681Z,5.07
2023-01-21T04:02:32.957Z,5.27
2023-01-21T04:05:00.251Z,5.27
2023-01-21T04:07:27.427Z,5.07
2023-01-21T04:09:54.596Z,5.43
2023-01-21T04:12:22.411Z,6.10
2023-01-21T04:14:49.548Z,5.03
2023-01-21T04:17:16.753Z,5.37
2023-01-21T04:19:44.304Z,5.03
2023-01-21T04:22:11.894Z,5.30
2023-01-21T04:24:39.134Z,4.60
2023-01-21T04:27:06.412Z,4.50
2023-01-21T04:29:33.638Z,5.03
2023-01-21T04:32:00.859Z,4.90
2023-01-21T04:34:28.279Z,4.87
2023-01-21T04:36:55.400Z,4.37
2023-01-21T04:39:22.766Z,4.17
2023-01-21T04:41:50.462Z,4.87
2023-01-21T04:44:17.924Z,5.73
2023-01-21T04:46:45.362Z,4.30
2023-01-21T04:49:13.200Z,4.40
2023-01-21T04:51:40.896Z,4.57
2023-01-21T04:54:10.542Z,4.73
2023-01-21T04:56:37.811Z,5.17
2023-01-21T04:59:05.433Z,4.80
2023-01-21T05:01:32.617Z,4.70
2023-01-21T05:03:59.833Z,4.90
2023-01-21T05:06:26.966Z,4.40
2023-01-21T05:08:54.093Z,4.50
2023-01-21T05:11:21.614Z,4.40
2023-01-21T05:13:48.963Z,5.17
2023-01-21T05:16:16.165Z,4.73
2023-01-21T05:18:46.731Z,4.73
2023-01-21T05:21:14.327Z,5.20
2023-01-21T05:23:41.402Z,5.20
2023-01-21T05:26:09.047Z,5.23
2023-01-21T05:28:36.204Z,4.73
2023-01-21T05:31:04.143Z,5.20
2023-01-21T05:33:35.119Z,4.17
2023-01-21T05:36:02.541Z,4.43
2023-01-21T05:38:29.901Z,4.53
2023-01-21T05:41:01.271Z,4.00
2023-01-21T05:43:28.738Z,4.47
2023-01-21T05:45:56.437Z,4.67
2023-01-21T05:48:24.544Z,4.57
2023-01-21T05:50:52.116Z,4.63
2023-01-21T05:53:19.661Z,4.60
2023-01-21T05:55:47.263Z,4.83
2023-01-21T05:58:14.696Z,5.10
2023-01-21T06:00:42.387Z,5.30
2023-01-21T06:03:09.949Z,5.27
2023-01-21T06:05:37.354Z,5.10
2023-01-21T06:08:05.110Z,4.70
2023-01-21T06:10:32.715Z,5.37
2023-01-21T06:13:00.138Z,5.17
2023-01-21T06:15:27.827Z,4.93
2023-01-21T06:17:55.513Z,4.83
2023-01-21T06:20:22.845Z,6.13
2023-01-21T06:22:50.055Z,5.63
2023-01-21T06:25:17.675Z,5.13
2023-01-21T06:27:45.464Z,3.97
2023-01-21T06:30:13.392Z,4.83
2023-01-21T06:32:41.018Z,3.97
2023-01-21T06:35:08.819Z,4.43
2023-01-21T06:37:36.954Z,4.33
2023-01-21T06:40:05.302Z,6.13
2023-01-21T06:42:32.703Z,5.50
2023-01-21T06:45:00.265Z,7.07
2023-01-21T06:47:27.856Z,5.97
2023-01-21T06:49:55.270Z,11.43
2023-01-21T06:52:23.096Z,17.27
2023-01-21T06:54:50.716Z,4.60
2023-01-21T06:57:18.222Z,5.07
2023-01-21T06:59:46.104Z,4.83
2023-01-21T07:02:13.764Z,3.73
2023-01-21T07:04:41.323Z,3.10
2023-01-21T07:07:08.957Z,4.03
2023-01-21T07:09:36.462Z,4.00
2023-01-21T07:12:03.914Z,3.53
2023-01-21T07:14:31.342Z,4.13
2023-01-21T07:16:58.771Z,4.47
2023-01-21T07:19:26.070Z,4.30
2023-01-21T07:21:54.646Z,16.13
2023-01-21T07:24:22.225Z,12.77
2023-01-21T07:26:49.598Z,8.37
2023-01-21T07:29:17.273Z,7.40
2023-01-21T07:31:44.704Z,5.50
2023-01-21T07:34:12.153Z,7.43
2023-01-21T07:36:39.760Z,10.37
2023-01-21T07:39:07.114Z,11.67
2023-01-21T07:41:34.511Z,7.60
2023-01-21T07:44:01.912Z,4.10
2023-01-21T07:46:29.273Z,6.37
2023-01-21T07:48:56.461Z,10.70
2023-01-21T07:51:23.772Z,9.83
2023-01-21T07:53:51.125Z,9.00
2023-01-21T07:56:18.861Z,9.30
2023-01-21T07:58:47.319Z,18.33
2023-01-21T08:01:14.709Z,9.57
2023-01-21T08:03:41.986Z,6.97
2023-01-21T08:06:09.481Z,5.43
2023-01-21T08:08:36.896Z,5.00
2023-01-21T08:11:04.392Z,7.73
2023-01-21T08:13:32.061Z,6.07
2023-01-21T08:15:59.596Z,4.80
2023-01-21T08:18:27.100Z,4.90
2023-01-21T08:20:58.629Z,4.93
2023-01-21T08:23:26.803Z,4.67
2023-01-21T08:25:54.388Z,3.03
2023-01-21T08:28:22.443Z,3.20
2023-01-21T08:30:49.904Z,3.67
2023-01-21T08:33:17.373Z,4.50
2023-01-21T08:35:44.813Z,3.13
2023-01-21T08:38:12.375Z,2.93
2023-01-21T08:40:39.723Z,3.50
2023-01-21T08:43:09.393Z,2.80
2023-01-21T08:45:36.942Z,2.77
2023-01-21T08:48:04.495Z,2.93
2023-01-21T08:50:31.907Z,3.03
2023-01-21T08:52:59.624Z,3.40
2023-01-21T08:55:27.442Z,4.37
2023-01-21T08:57:56.010Z,3.03
2023-01-21T09:00:24.356Z,3.10
2023-01-21T09:02:51.942Z,3.27
2023-01-21T09:05:19.704Z,2.77
2023-01-21T09:07:47.331Z,2.23
2023-01-21T09:10:34.953Z,2.80
2023-01-21T09:13:06.748Z,3.20
2023-01-21T09:15:39.390Z,2.30
2023-01-21T09:18:06.889Z,2.77
2023-01-21T09:20:34.030Z,2.60
2023-01-21T09:23:01.264Z,2.50
2023-01-21T09:25:28.429Z,2.80
2023-01-21T09:27:55.711Z,2.87
2023-01-21T09:30:22.862Z,2.97
2023-01-21T09:32:50.126Z,2.83
2023-01-21T09:35:17.542Z,3.00
2023-01-21T09:37:46.212Z,3.50
2023-01-21T09:40:16.712Z,4.40
2023-01-21T09:42:44.093Z,2.80
2023-01-21T09:45:11.949Z,2.70
2023-01-21T09:47:40.713Z,2.40
2023-01-21T09:50:22.395Z,2.23
2023-01-21T09:52:52.285Z,3.53
2023-01-21T09:55:25.426Z,2.80
2023-01-21T09:58:26.650Z,2.63
2023-01-21T10:00:59.114Z,2.47
2023-01-21T10:03:40.186Z,3.43
2023-01-21T10:06:20.798Z,2.83
2023-01-21T10:08:53.900Z,2.60
2023-01-21T10:11:34.791Z,3.07
2023-01-21T10:14:21.581Z,3.37
2023-01-21T10:17:09.788Z,2.37
2023-01-21T10:20:01.756Z,2.77
2023-01-21T10:22:29.283Z,3.10
2023-01-21T10:25:04.504Z,3.50
2023-01-21T10:27:33.658Z,2.93
2023-01-21T10:30:07.360Z,3.23
2023-01-21T10:32:34.915Z,3.00
2023-01-21T10:35:02.495Z,2.97
2023-01-21T10:37:41.421Z,2.53
2023-01-21T10:40:57.742Z,2.83
2023-01-21T10:43:33.584Z,2.70
2023-01-21T10:46:19.125Z,2.60
2023-01-21T10:49:07.189Z,3.23
2023-01-21T10:51:51.454Z,2.53
2023-01-21T10:54:27.728Z,3.00
2023-01-21T10:57:09.857Z,3.10
2023-01-21T10:59:37.254Z,2.70
2023-01-21T11:02:16.144Z,2.77
2023-01-21T11:04:43.385Z,2.90
2023-01-21T11:07:12.350Z,2.83
2023-01-21T11:09:41.566Z,3.00
2023-01-21T11:12:13.275Z,2.73
2023-01-21T11:14:40.626Z,2.07
2023-01-21T11:17:08.460Z,2.90
2023-01-21T11:19:35.959Z,2.63
2023-01-21T11:22:20.632Z,2.57
2023-01-21T11:24:49.960Z,3.27
2023-01-21T11:27:34.665Z,3.73
2023-01-21T11:30:02.700Z,2.23
2023-01-21T11:32:31.024Z,2.00
2023-01-21T11:35:10.517Z,2.00
2023-01-21T11:37:38.617Z,1.93
2023-01-21T11:40:11.454Z,2.30
2023-01-21T11:42:49.593Z,2.10
2023-01-21T11:45:31.104Z,2.10
2023-01-21T11:47:59.279Z,2.90
2023-01-21T11:50:32.024Z,2.10
2023-01-21T11:53:09.712Z,2.20
2023-01-21T11:55:45.386Z,1.63
2023-01-21T11:58:39.624Z,2.30
2023-01-21T12:01:09.295Z,2.20
2023-01-21T12:03:52.325Z,2.00
2023-01-21T12:06:34.350Z,1.80
2023-01-21T12:09:05.391Z,2.70
2023-01-21T12:11:32.932Z,2.10
2023-01-21T12:14:18.668Z,2.37
2023-01-21T12:17:11.065Z,3.10
2023-01-21T12:19:59.585Z,3.23
2023-01-21T12:23:07.320Z,2.77
2023-01-21T12:25:45.147Z,2.13
2023-01-21T12:28:25.435Z,1.90
2023-01-21T12:31:01.696Z,2.40
2023-01-21T12:33:31.994Z,2.17
2023-01-21T12:36:09.620Z,1.70
2023-01-21T12:38:42.788Z,1.93
2023-01-21T12:41:27.968Z,2.53
2023-01-21T12:43:58.121Z,2.20
2023-01-21T12:46:35.155Z,2.43
2023-01-21T12:49:09.095Z,2.23
2023-01-21T12:51:41.690Z,2.57
2023-01-21T12:54:25.551Z,2.17
2023-01-21T12:57:17.645Z,2.33
2023-01-21T13:00:19.635Z,2.47
2023-01-21T13:03:22.874Z,2.63
2023-01-21T13:06:37.981Z,3.23
2023-01-21T13:09:42.226Z,2.80
2023-01-21T13:12:24.925Z,2.63
2023-01-21T13:14:57.334Z,2.83
2023-01-21T13:17:28.527Z,3.10
2023-01-21T13:19:55.805Z,2.67
2023-01-21T13:22:29.943Z,2.50
2023-01-21T13:25:21.664Z,2.73
2023-01-21T13:28:00.467Z,3.37
2023-01-21T13:30:55.649Z,3.47
2023-01-21T13:33:43.862Z,2.50
2023-01-21T13:36:20.231Z,2.17
2023-01-21T13:39:08.685Z,2.20
2023-01-21T13:42:05.986Z,2.67
2023-01-21T13:44:55.499Z,2.07
2023-01-21T13:47:53.456Z,3.00
2023-01-21T13:50:32.787Z,1.93
2023-01-21T13:53:25.976Z,2.33
2023-01-21T13:56:05.494Z,6.30
2023-01-21T13:58:52.171Z,3.03
2023-01-21T14:01:44.751Z,3.90
2023-01-21T14:04:16.724Z,4.53
2023-01-21T14:06:53.701Z,3.67
2023-01-21T14:09:28.483Z,2.43
2023-01-21T14:11:55.928Z,3.90
2023-01-21T14:14:58.856Z,2.47
2023-01-21T14:18:04.738Z,2.73
2023-01-21T14:20:47.945Z,2.77
2023-01-21T14:23:22.749Z,2.60
2023-01-21T14:26:17.900Z,2.30
2023-01-21T14:29:09.405Z,1.53
2023-01-21T14:31:58.629Z,2.13
2023-01-21T14:34:30.641Z,3.53
2023-01-21T14:37:15.300Z,2.00
2023-01-21T14:39:45.911Z,1.73
2023-01-21T14:42:16.553Z,2.30
2023-01-21T14:44:50.546Z,2.23
2023-01-21T14:47:30.250Z,2.37
2023-01-21T14:49:59.099Z,2.50
2023-01-21T14:52:34.614Z,4.10
2023-01-21T14:55:02.193Z,3.00
2023-01-21T14:57:37.635Z,2.00
2023-01-21T15:00:12.170Z,2.30
2023-01-21T15:02:44.166Z,2.10
2023-01-21T15:05:11.592Z,2.13
2023-01-21T15:07:40.339Z,2.43
2023-01-21T15:10:20.466Z,2.40
2023-01-21T15:12:58.270Z,2.77
2023-01-21T15:15:35.209Z,2.70
2023-01-21T15:18:21.564Z,3.43
2023-01-21T15:20:58.350Z,4.03
2023-01-21T15:23:32.153Z,4.17
2023-01-21T15:26:09.687Z,4.07
2023-01-21T15:28:40.859Z,3.73
2023-01-21T15:31:13.532Z,3.93
2023-01-21T15:33:53.656Z,4.17
2023-01-21T15:36:26.504Z,4.93
2023-01-21T15:38:59.612Z,4.07
2023-01-21T15:41:34.738Z,4.03
2023-01-21T15:44:05.479Z,4.80
2023-01-21T15:46:42.211Z,4.63
2023-01-21T15:49:36.697Z,5.13
2023-01-21T15:52:24.778Z,6.33
2023-01-21T15:55:28.279Z,9.57
2023-01-21T15:58:07.031Z,9.77
2023-01-21T16:00:38.326Z,10.47
2023-01-21T16:03:11.917Z,9.23
2023-01-21T16:05:54.943Z,5.17
2023-01-21T16:08:36.001Z,4.73
2023-01-21T16:11:12.620Z,4.60
2023-01-21T16:13:48.679Z,4.53
2023-01-21T16:16:32.351Z,5.53
2023-01-21T16:19:33.331Z,6.53
2023-01-21T16:22:03.114Z,5.33
2023-01-21T16:24:31.281Z,5.63
2023-01-21T16:27:26.427Z,11.90
2023-01-21T16:29:58.334Z,6.23
2023-01-21T16:32:27.355Z,6.97
2023-01-21T16:34:54.798Z,8.10
2023-01-21T16:37:24.440Z,7.50
2023-01-21T16:39:56.302Z,6.83
2023-01-21T16:42:36.840Z,4.50
2023-01-21T16:45:10.313Z,4.50
2023-01-21T16:47:37.847Z,4.47
2023-01-21T16:50:06.214Z,4.07
2023-01-21T16:52:33.780Z,3.63
2023-01-21T16:55:01.130Z,4.43
2023-01-21T16:57:32.139Z,4.73
2023-01-21T17:00:02.680Z,4.17
2023-01-21T17:02:34.405Z,4.07
2023-01-21T17:05:05.148Z,4.27
2023-01-21T17:07:47.472Z,4.57
2023-01-21T17:10:33.613Z,4.10
2023-01-21T17:13:21.583Z,5.40
2023-01-21T17:16:01.209Z,5.20
2023-01-21T17:18:35.153Z,6.37
2023-01-21T17:21:06.086Z,7.83
2023-01-21T17:23:46.732Z,5.83
2023-01-21T17:26:47.039Z,5.20
2023-01-21T17:29:30.425Z,4.47
2023-01-21T17:32:01.929Z,4.90
2023-01-21T17:34:40.235Z,4.67
2023-01-21T17:37:44.560Z,4.97
2023-01-21T17:40:33.972Z,4.83
2023-01-21T17:43:10.039Z,5.13
2023-01-21T17:45:39.205Z,7.33
2023-01-21T17:48:11.785Z,8.27
2023-01-21T17:50:45.686Z,9.67
2023-01-21T17:53:19.617Z,10.47
2023-01-21T17:56:00.103Z,8.50
2023-01-21T17:58:33.054Z,7.40
2023-01-21T18:01:04.073Z,10.37
2023-01-21T18:03:31.394Z,7.93
2023-01-21T18:05:58.864Z,8.33
2023-01-21T18:08:26.474Z,8.87
2023-01-21T18:10:53.799Z,7.10
2023-01-21T18:13:21.811Z,6.90
2023-01-21T18:15:51.997Z,7.50
2023-01-21T18:18:21.296Z,10.87
2023-01-21T18:20:48.789Z,8.17
2023-01-21T18:23:18.429Z,8.70
2023-01-21T18:25:49.114Z,7.47
2023-01-21T18:28:21.360Z,6.73
2023-01-21T18:30:49.051Z,6.27
2023-01-21T18:33:16.401Z,6.23
2023-01-21T18:35:44.943Z,6.60
2023-01-21T18:38:13.662Z,7.20
2023-01-21T18:40:41.268Z,7.27
2023-01-21T18:43:10.085Z,7.53
2023-01-21T18:45:37.423Z,7.37
2023-01-21T18:48:07.032Z,6.60
2023-01-21T18:50:34.386Z,6.87
2023-01-21T18:53:01.795Z,10.00
2023-01-21T18:55:29.348Z,7.50
2023-01-21T18:57:57.351Z,9.67
2023-01-21T19:00:25.979Z,12.87
2023-01-21T19:02:54.319Z,17.60
2023-01-21T19:05:22.246Z,11.80
2023-01-21T19:07:49.677Z,13.43
2023-01-21T19:10:20.049Z,9.03
2023-01-21T19:12:48.046Z,9.83
2023-01-21T19:15:19.946Z,9.73
2023-01-21T19:17:47.513Z,8.80
2023-01-21T19:20:19.261Z,9.60
2023-01-21T19:22:47.119Z,18.87
2023-01-21T19:25:14.724Z,15.37
2023-01-21T19:27:43.557Z,11.77
2023-01-21T19:30:22.353Z,7.57
2023-01-21T19:32:50.305Z,9.80
2023-01-21T19:35:18.319Z,7.67
2023-01-21T19:37:49.455Z,8.53
2023-01-21T19:40:18.985Z,8.30
2023-01-21T19:42:47.264Z,7.87
2023-01-21T19:45:14.782Z,9.40
2023-01-21T19:47:43.545Z,9.40
2023-01-21T19:50:31.346Z,8.10
2023-01-21T19:52:58.455Z,19.23
2023-01-21T19:55:26.256Z,19.23
2023-01-21T19:57:56.789Z,16.27
2023-01-21T20:00:29.555Z,15.40
2023-01-21T20:02:56.924Z,32.13
2023-01-21T20:05:26.538Z,11.33
2023-01-21T20:07:54.224Z,12.10
2023-01-21T20:10:23.566Z,11.30
2023-01-21T20:12:51.078Z,12.97
2023-01-21T20:15:20.035Z,11.17
2023-01-21T20:17:52.879Z,8.53
2023-01-21T20:20:22.216Z,9.97
2023-01-21T20:22:49.628Z,12.47
2023-01-21T20:25:34.066Z,11.67
2023-01-21T20:28:01.695Z,10.23
2023-01-21T20:30:30.720Z,8.83
2023-01-21T20:32:58.663Z,11.47
2023-01-21T20:35:27.261Z,9.50
2023-01-21T20:37:55.689Z,14.50
2023-01-21T20:40:27.816Z,8.73
2023-01-21T20:42:55.982Z,9.83
2023-01-21T20:45:27.407Z,10.23
2023-01-21T20:47:57.350Z,10.17
2023-01-21T20:50:31.904Z,11.87
2023-01-21T20:52:59.676Z,16.03
2023-01-21T20:55:27.585Z,10.30
2023-01-21T20:57:54.989Z,9.47
2023-01-21T21:00:43.425Z,10.70
2023-01-21T21:03:11.352Z,9.97
2023-01-21T21:05:39.004Z,12.23
2023-01-21T21:08:06.397Z,12.07
2023-01-21T21:10:36.409Z,13.10
2023-01-21T21:13:04.172Z,13.07
2023-01-21T21:15:32.944Z,12.43
2023-01-21T21:18:00.436Z,12.83
2023-01-21T21:20:30.169Z,10.57
2023-01-21T21:22:57.756Z,10.80
2023-01-21T21:25:27.271Z,12.70
2023-01-21T21:27:54.946Z,11.73
2023-01-21T21:30:28.797Z,14.80
2023-01-21T21:32:56.760Z,10.53
2023-01-21T21:35:27.977Z,10.10
2023-01-21T21:37:56.797Z,7.90
2023-01-21T21:40:26.402Z,7.30
2023-01-21T21:43:12.587Z,8.23
2023-01-21T21:45:59.947Z,9.73
2023-01-21T21:48:39.644Z,9.33
2023-01-21T21:51:08.003Z,31.10
2023-01-21T21:53:36.047Z,19.47
2023-01-21T21:56:08.429Z,10.27
2023-01-21T21:58:36.072Z,9.97
2023-01-21T22:01:17.449Z,12.50
2023-01-21T22:03:45.172Z,11.47
2023-01-21T22:06:13.478Z,9.73
2023-01-21T22:08:42.396Z,20.37
2023-01-21T22:11:13.775Z,37.87
2023-01-21T22:13:42.280Z,27.00
2023-01-21T22:16:12.888Z,34.87
2023-01-21T22:18:40.571Z,38.83
2023-01-21T22:21:11.180Z,26.97
2023-01-21T22:23:38.732Z,15.70
2023-01-21T22:26:07.369Z,12.40
2023-01-21T22:28:37.805Z,14.40
2023-01-21T22:31:11.390Z,8.47
2023-01-21T22:33:39.640Z,7.97
2023-01-21T22:36:11.440Z,9.23
2023-01-21T22:38:40.754Z,7.13
2023-01-21T22:41:08.667Z,7.60
2023-01-21T22:43:36.224Z,8.20
2023-01-21T22:46:03.653Z,8.43
2023-01-21T22:48:31.831Z,7.90
2023-01-21T22:51:00.133Z,6.53
2023-01-21T22:53:27.954Z,7.80
2023-01-21T22:56:05.383Z,8.23
2023-01-21T22:58:33.896Z,64.50
2023-01-21T23:01:01.464Z,21.10
2023-01-21T23:03:29.165Z,10.73
2023-01-21T23:06:05.943Z,10.63
2023-01-21T23:08:33.698Z,14.40
2023-01-21T23:11:02.597Z,19.37
2023-01-21T23:13:30.464Z,25.20
2023-01-21T23:15:58.736Z,14.37
2023-01-21T23:18:27.791Z,18.23
2023-01-21T23:20:55.843Z,10.27
2023-01-21T23:23:23.803Z,10.43
2023-01-21T23:25:51.184Z,8.00
2023-01-21T23:28:18.558Z,9.83
2023-01-21T23:30:45.952Z,12.80
2023-01-21T23:33:13.740Z,9.87
2023-01-21T23:35:41.111Z,18.77
2023-01-21T23:38:08.417Z,15.37
2023-01-21T23:40:35.894Z,13.77
2023-01-21T23:43:03.300Z,10.87
2023-01-21T23:45:31.066Z,11.23
2023-01-21T23:47:58.863Z,9.13
2023-01-21T23:50:26.571Z,9.23
2023-01-21T23:52:54.150Z,14.90
2023-01-21T23:55:21.569Z,9.93
2023-01-21T23:57:48.662Z,10.30
